»·PEaware :: AAL1632 KLAX-KSAN

AAL1632 :: KLAX-KSAN

FLIGHT INFORMATION

Flight Status: Arrived
Operator:
American Airlines
More flights by this operator :: More flights under this callsign
Pilot: Anonymous 18378 (18378)
Aircraft: BOEING 737-800
(B738)
More flights by this aircraft type
Origin: KLAX Los Angeles Intl
United States
Destination: KSAN San Diego Intl-Lindbergh
United States
More flights between these airports :: More routes between these airports
Route: +LAXX1 MZB
File this flight plan on PilotEdge
Remarks:
Altitude:
(Current/Filed)
11,000ft
Speed:
(Current/Filed)
300kts
Departed: 08-Jan-20 10:57 PM
Arrived: 08-Jan-20 11:33 PM
Distance/Time
Traveled:
95nm/0:36
Distance/Time
To Go:
Arrived

Flight Plot

Page will automatically refresh every two minutes.


Map Options




Map Legend


Flown Route
Filed Route
Departure Airport
Arrival Airport
Navaid (VOR, NDB)
Fix

Horizontal Profiles

Position Reports

Time Latitude Longitude Heading Altitude Ground
Speed
08-Jan-20 22:24 33.939762 -118.408194 174 129ft 0kts
08-Jan-20 22:25 33.939762 -118.408194 174 129ft 0kts
08-Jan-20 22:26 33.939762 -118.408194 174 129ft 0kts
08-Jan-20 22:27 33.939762 -118.408194 174 129ft 0kts
08-Jan-20 22:28 33.939762 -118.408194 174 129ft 0kts
08-Jan-20 22:29 33.939762 -118.408194 174 129ft 0kts
08-Jan-20 22:30 33.939762 -118.408194 174 129ft 0kts
08-Jan-20 22:31 33.939762 -118.408194 174 129ft 0kts
08-Jan-20 22:32 33.939762 -118.408194 174 129ft 0kts
08-Jan-20 22:33 33.939762 -118.408194 174 129ft 0kts
08-Jan-20 22:34 33.939762 -118.408194 174 129ft 0kts
08-Jan-20 22:35 33.939762 -118.408194 174 129ft 0kts
08-Jan-20 22:36 33.939762 -118.408194 174 129ft 0kts
08-Jan-20 22:37 33.939762 -118.408194 174 129ft 0kts
08-Jan-20 22:38 33.939762 -118.408194 174 129ft 0kts
08-Jan-20 22:39 33.939762 -118.408194 174 129ft 0kts
08-Jan-20 22:40 33.939762 -118.408194 174 129ft 0kts
08-Jan-20 22:41 33.939762 -118.408194 174 129ft 0kts
08-Jan-20 22:42 33.939762 -118.408194 174 129ft 0kts
08-Jan-20 22:43 33.939762 -118.408194 174 129ft 0kts
08-Jan-20 22:44 33.939762 -118.408194 174 129ft 0kts
08-Jan-20 22:45 33.939762 -118.408194 174 129ft 0kts
08-Jan-20 22:46 33.939762 -118.408194 174 129ft 0kts
08-Jan-20 22:47 33.939762 -118.408194 174 129ft 0kts
08-Jan-20 22:48 33.939762 -118.408194 174 129ft 0kts
08-Jan-20 22:49 33.939762 -118.408194 174 129ft 0kts
08-Jan-20 22:50 33.938271 -118.407217 128 129ft 12kts
08-Jan-20 22:51 33.938867 -118.399134 83 117ft 27kts
08-Jan-20 22:52 33.939791 -118.390174 83 106ft 26kts
08-Jan-20 22:53 33.940422 -118.383775 89 103ft 0kts
08-Jan-20 22:54 33.940422 -118.383773 89 103ft 0kts
08-Jan-20 22:55 33.939475 -118.383727 261 103ft 12kts
08-Jan-20 22:56 33.934045 -118.432621 259 1309ft 206kts
08-Jan-20 22:57 33.920898 -118.504201 258 3631ft 227kts
08-Jan-20 22:58 33.901249 -118.582529 252 5820ft 255kts
08-Jan-20 22:59 33.874625 -118.674029 251 4160ft 301kts
08-Jan-20 23:00 33.818115 -118.724776 175 5855ft 283kts
08-Jan-20 23:01 33.764101 -118.714987 171 7545ft 291kts
08-Jan-20 23:02 33.683410 -118.697600 171 9843ft 300kts
08-Jan-20 23:03 33.625593 -118.622752 111 10697ft 353kts
08-Jan-20 23:04 33.588549 -118.514038 111 10753ft 352kts
08-Jan-20 23:05 33.551175 -118.404732 111 10818ft 352kts
08-Jan-20 23:06 33.514300 -118.297263 111 10871ft 352kts
08-Jan-20 23:07 33.476762 -118.187790 111 10914ft 353kts
08-Jan-20 23:08 33.439378 -118.079139 111 10962ft 354kts
08-Jan-20 23:09 33.413881 -117.966531 91 10985ft 352kts
08-Jan-20 23:10 33.408501 -117.849802 91 10984ft 351kts
08-Jan-20 23:11 33.393926 -117.734964 111 10990ft 354kts
08-Jan-20 23:12 33.347878 -117.630355 120 10991ft 355kts
08-Jan-20 23:13 33.296843 -117.529349 120 10993ft 354kts
08-Jan-20 23:14 33.246028 -117.428473 120 11002ft 350kts
08-Jan-20 23:15 33.161309 -117.377373 171 10999ft 347kts
08-Jan-20 23:16 33.068048 -117.345081 164 10989ft 328kts
08-Jan-20 23:17 32.980437 -117.308301 165 10994ft 330kts
08-Jan-20 23:18 32.898585 -117.273974 165 9933ft 290kts
08-Jan-20 23:20 32.822246 -117.242086 165 8118ft 274kts
08-Jan-20 23:21 32.756770 -117.197256 114 7043ft 283kts
08-Jan-20 23:22 32.742226 -117.101374 101 7015ft 286kts
08-Jan-20 23:23 32.731049 -117.009054 101 6636ft 248kts
08-Jan-20 23:24 32.721997 -116.927852 101 5400ft 236kts
08-Jan-20 23:25 32.702298 -116.866879 175 5041ft 182kts
08-Jan-20 23:26 32.671042 -116.899626 250 4992ft 172kts
08-Jan-20 23:27 32.665837 -116.951235 333 4207ft 192kts
08-Jan-20 23:28 32.697201 -116.996022 270 4129ft 175kts
08-Jan-20 23:29 32.700746 -117.055894 288 2867ft 173kts
08-Jan-20 23:30 32.714475 -117.111163 285 1606ft 154kts
08-Jan-20 23:31 32.726686 -117.160313 284 441ft 146kts
08-Jan-20 23:32 32.735865 -117.199758 274 20ft 52kts
08-Jan-20 23:33 32.735608 -117.201950 235 20ft 0kts
08-Jan-20 23:34 32.735177 -117.200758 100 20ft 12kts
08-Jan-20 23:35 32.734103 -117.196363 124 21ft 0kts
08-Jan-20 23:36 32.733425 -117.196003 197 22ft 1kts
08-Jan-20 23:37 32.733297 -117.196051 198 22ft 0kts
08-Jan-20 23:38 32.733297 -117.196051 198 22ft 0kts
08-Jan-20 23:39 32.733297 -117.196051 198 22ft 0kts
08-Jan-20 23:40 32.733297 -117.196051 198 22ft 0kts
08-Jan-20 23:41 32.733297 -117.196051 198 22ft 0kts

Navigation Log

Ident Type
Flight plan parsing failed, navigation log unavailable